sensor_id;sensor_type;location;lat;lon;timestamp;P1;durP1;ratioP1;P2;durP2;ratioP2
16101;SDS011;56411;52.964;10.540;2022-12-07T00:01:05;60.17;;;26.10;;
16101;SDS011;56411;52.964;10.540;2022-12-07T00:03:35;60.77;;;26.83;;
16101;SDS011;56411;52.964;10.540;2022-12-07T00:06:03;57.87;;;27.07;;
16101;SDS011;56411;52.964;10.540;2022-12-07T00:08:32;61.87;;;26.77;;
16101;SDS011;56411;52.964;10.540;2022-12-07T00:11:01;62.40;;;26.73;;
16101;SDS011;56411;52.964;10.540;2022-12-07T00:13:29;55.67;;;26.07;;
16101;SDS011;56411;52.964;10.540;2022-12-07T00:15:59;65.23;;;27.23;;
16101;SDS011;56411;52.964;10.540;2022-12-07T00:18:28;62.60;;;26.07;;
16101;SDS011;56411;52.964;10.540;2022-12-07T00:21:00;65.83;;;28.23;;
16101;SDS011;56411;52.964;10.540;2022-12-07T00:23:28;61.47;;;26.67;;
16101;SDS011;56411;52.964;10.540;2022-12-07T00:25:56;69.10;;;28.40;;
16101;SDS011;56411;52.964;10.540;2022-12-07T00:28:29;64.87;;;28.17;;
16101;SDS011;56411;52.964;10.540;2022-12-07T00:30:59;62.73;;;26.47;;
16101;SDS011;56411;52.964;10.540;2022-12-07T00:33:27;63.67;;;26.60;;
16101;SDS011;56411;52.964;10.540;2022-12-07T00:35:55;63.07;;;27.20;;
16101;SDS011;56411;52.964;10.540;2022-12-07T00:38:24;66.87;;;29.07;;
16101;SDS011;56411;52.964;10.540;2022-12-07T00:40:55;61.60;;;26.67;;
16101;SDS011;56411;52.964;10.540;2022-12-07T00:43:23;60.57;;;24.77;;
16101;SDS011;56411;52.964;10.540;2022-12-07T00:45:50;59.00;;;26.13;;
16101;SDS011;56411;52.964;10.540;2022-12-07T00:48:17;62.03;;;27.10;;
16101;SDS011;56411;52.964;10.540;2022-12-07T00:50:45;59.37;;;26.10;;
16101;SDS011;56411;52.964;10.540;2022-12-07T00:53:12;60.90;;;25.60;;
16101;SDS011;56411;52.964;10.540;2022-12-07T00:55:41;60.20;;;25.97;;
16101;SDS011;56411;52.964;10.540;2022-12-07T00:58:10;57.80;;;25.93;;
16101;SDS011;56411;52.964;10.540;2022-12-07T01:00:38;64.20;;;26.27;;
16101;SDS011;56411;52.964;10.540;2022-12-07T01:03:07;56.40;;;26.77;;
16101;SDS011;56411;52.964;10.540;2022-12-07T01:05:35;56.63;;;25.03;;
16101;SDS011;56411;52.964;10.540;2022-12-07T01:08:03;58.63;;;27.00;;
16101;SDS011;56411;52.964;10.540;2022-12-07T01:10:31;59.97;;;26.17;;
16101;SDS011;56411;52.964;10.540;2022-12-07T01:13:01;55.93;;;27.10;;
16101;SDS011;56411;52.964;10.540;2022-12-07T01:15:28;59.80;;;26.67;;
16101;SDS011;56411;52.964;10.540;2022-12-07T01:17:55;62.30;;;26.77;;
16101;SDS011;56411;52.964;10.540;2022-12-07T01:20:23;66.40;;;28.63;;
16101;SDS011;56411;52.964;10.540;2022-12-07T01:22:50;59.20;;;26.53;;
16101;SDS011;56411;52.964;10.540;2022-12-07T01:25:17;55.83;;;24.83;;
16101;SDS011;56411;52.964;10.540;2022-12-07T01:27:45;50.10;;;22.47;;
16101;SDS011;56411;52.964;10.540;2022-12-07T01:30:14;58.30;;;26.33;;
16101;SDS011;56411;52.964;10.540;2022-12-07T01:32:41;53.63;;;25.00;;
16101;SDS011;56411;52.964;10.540;2022-12-07T01:35:09;55.60;;;24.67;;
16101;SDS011;56411;52.964;10.540;2022-12-07T01:37:36;50.77;;;25.17;;
16101;SDS011;56411;52.964;10.540;2022-12-07T01:40:06;53.40;;;24.33;;
16101;SDS011;56411;52.964;10.540;2022-12-07T01:42:34;47.57;;;23.40;;
16101;SDS011;56411;52.964;10.540;2022-12-07T01:48:10;51.93;;;23.67;;
16101;SDS011;56411;52.964;10.540;2022-12-07T01:50:41;49.73;;;22.83;;
16101;SDS011;56411;52.964;10.540;2022-12-07T01:53:09;50.40;;;23.23;;
16101;SDS011;56411;52.964;10.540;2022-12-07T01:55:38;50.47;;;24.13;;
16101;SDS011;56411;52.964;10.540;2022-12-07T01:58:10;47.03;;;22.87;;
16101;SDS011;56411;52.964;10.540;2022-12-07T02:00:38;49.60;;;24.03;;
16101;SDS011;56411;52.964;10.540;2022-12-07T02:03:08;51.17;;;22.93;;
16101;SDS011;56411;52.964;10.540;2022-12-07T02:05:41;44.00;;;21.27;;
16101;SDS011;56411;52.964;10.540;2022-12-07T02:08:09;45.80;;;22.70;;
16101;SDS011;56411;52.964;10.540;2022-12-07T02:10:38;44.10;;;22.53;;
16101;SDS011;56411;52.964;10.540;2022-12-07T02:13:08;45.43;;;20.80;;
16101;SDS011;56411;52.964;10.540;2022-12-07T02:15:41;44.60;;;21.33;;
16101;SDS011;56411;52.964;10.540;2022-12-07T02:18:22;39.50;;;20.10;;
16101;SDS011;56411;52.964;10.540;2022-12-07T02:20:59;44.57;;;20.63;;
16101;SDS011;56411;52.964;10.540;2022-12-07T02:23:46;39.03;;;19.90;;
16101;SDS011;56411;52.964;10.540;2022-12-07T02:29:37;37.27;;;18.50;;
16101;SDS011;56411;52.964;10.540;2022-12-07T02:32:11;36.70;;;18.70;;
16101;SDS011;56411;52.964;10.540;2022-12-07T02:34:47;36.47;;;17.87;;
16101;SDS011;56411;52.964;10.540;2022-12-07T02:37:19;33.53;;;17.40;;
16101;SDS011;56411;52.964;10.540;2022-12-07T02:40:14;33.37;;;16.50;;
16101;SDS011;56411;52.964;10.540;2022-12-07T02:42:46;30.43;;;15.63;;
16101;SDS011;56411;52.964;10.540;2022-12-07T02:45:18;32.77;;;15.30;;
16101;SDS011;56411;52.964;10.540;2022-12-07T02:47:50;29.17;;;14.50;;
16101;SDS011;56411;52.964;10.540;2022-12-07T02:50:19;31.50;;;14.10;;
16101;SDS011;56411;52.964;10.540;2022-12-07T02:52:47;26.30;;;13.40;;
16101;SDS011;56411;52.964;10.540;2022-12-07T02:55:17;27.67;;;14.77;;
16101;SDS011;56411;52.964;10.540;2022-12-07T02:57:53;28.87;;;14.97;;
16101;SDS011;56411;52.964;10.540;2022-12-07T03:00:29;31.93;;;13.53;;
16101;SDS011;56411;52.964;10.540;2022-12-07T03:03:03;29.03;;;14.20;;
16101;SDS011;56411;52.964;10.540;2022-12-07T03:05:45;27.10;;;13.13;;
16101;SDS011;56411;52.964;10.540;2022-12-07T03:08:25;24.93;;;11.63;;
16101;SDS011;56411;52.964;10.540;2022-12-07T03:11:02;26.50;;;11.93;;
16101;SDS011;56411;52.964;10.540;2022-12-07T03:13:33;24.67;;;12.23;;
16101;SDS011;56411;52.964;10.540;2022-12-07T03:16:05;24.20;;;11.73;;
16101;SDS011;56411;52.964;10.540;2022-12-07T03:18:39;23.67;;;11.13;;
16101;SDS011;56411;52.964;10.540;2022-12-07T03:21:11;22.93;;;11.53;;
16101;SDS011;56411;52.964;10.540;2022-12-07T03:23:44;23.30;;;11.30;;
16101;SDS011;56411;52.964;10.540;2022-12-07T03:26:16;22.37;;;10.30;;
16101;SDS011;56411;52.964;10.540;2022-12-07T03:28:47;23.37;;;10.43;;
16101;SDS011;56411;52.964;10.540;2022-12-07T03:31:18;21.37;;;10.23;;
16101;SDS011;56411;52.964;10.540;2022-12-07T03:33:49;19.47;;;9.40;;
16101;SDS011;56411;52.964;10.540;2022-12-07T03:36:21;20.83;;;9.40;;
16101;SDS011;56411;52.964;10.540;2022-12-07T03:38:53;19.40;;;8.97;;
16101;SDS011;56411;52.964;10.540;2022-12-07T03:41:28;21.73;;;9.87;;
16101;SDS011;56411;52.964;10.540;2022-12-07T03:43:57;19.13;;;8.43;;
16101;SDS011;56411;52.964;10.540;2022-12-07T03:46:27;20.77;;;9.27;;
16101;SDS011;56411;52.964;10.540;2022-12-07T03:49:04;16.97;;;8.27;;
16101;SDS011;56411;52.964;10.540;2022-12-07T03:51:37;18.13;;;7.90;;
16101;SDS011;56411;52.964;10.540;2022-12-07T03:54:10;21.47;;;8.83;;
16101;SDS011;56411;52.964;10.540;2022-12-07T03:56:43;16.97;;;7.90;;
16101;SDS011;56411;52.964;10.540;2022-12-07T03:59:12;19.60;;;7.70;;
16101;SDS011;56411;52.964;10.540;2022-12-07T04:01:41;20.73;;;8.23;;
16101;SDS011;56411;52.964;10.540;2022-12-07T04:04:09;17.50;;;8.33;;
16101;SDS011;56411;52.964;10.540;2022-12-07T04:06:36;18.90;;;8.77;;
16101;SDS011;56411;52.964;10.540;2022-12-07T04:09:03;19.90;;;8.20;;
16101;SDS011;56411;52.964;10.540;2022-12-07T04:11:30;19.67;;;8.17;;
16101;SDS011;56411;52.964;10.540;2022-12-07T04:13:59;18.63;;;7.57;;
16101;SDS011;56411;52.964;10.540;2022-12-07T04:16:45;19.03;;;7.90;;
16101;SDS011;56411;52.964;10.540;2022-12-07T04:19:13;17.60;;;7.23;;
16101;SDS011;56411;52.964;10.540;2022-12-07T04:21:41;19.03;;;7.67;;
16101;SDS011;56411;52.964;10.540;2022-12-07T04:24:09;17.10;;;7.67;;
16101;SDS011;56411;52.964;10.540;2022-12-07T04:26:38;17.57;;;7.90;;
16101;SDS011;56411;52.964;10.540;2022-12-07T04:29:06;17.83;;;7.17;;
16101;SDS011;56411;52.964;10.540;2022-12-07T04:31:33;17.53;;;7.50;;
16101;SDS011;56411;52.964;10.540;2022-12-07T04:34:01;14.93;;;6.67;;
16101;SDS011;56411;52.964;10.540;2022-12-07T04:36:29;18.73;;;7.40;;
16101;SDS011;56411;52.964;10.540;2022-12-07T04:38:56;19.10;;;7.70;;
16101;SDS011;56411;52.964;10.540;2022-12-07T04:41:24;21.03;;;8.33;;
16101;SDS011;56411;52.964;10.540;2022-12-07T04:43:53;15.90;;;6.80;;
16101;SDS011;56411;52.964;10.540;2022-12-07T04:46:23;17.20;;;7.50;;
16101;SDS011;56411;52.964;10.540;2022-12-07T04:48:52;16.17;;;7.00;;
16101;SDS011;56411;52.964;10.540;2022-12-07T04:51:20;17.20;;;7.60;;
16101;SDS011;56411;52.964;10.540;2022-12-07T04:53:49;15.77;;;6.60;;
16101;SDS011;56411;52.964;10.540;2022-12-07T04:56:17;15.83;;;6.57;;
16101;SDS011;56411;52.964;10.540;2022-12-07T04:58:45;16.27;;;7.57;;
16101;SDS011;56411;52.964;10.540;2022-12-07T05:01:14;15.47;;;6.73;;
16101;SDS011;56411;52.964;10.540;2022-12-07T05:03:45;17.57;;;7.40;;
16101;SDS011;56411;52.964;10.540;2022-12-07T05:06:12;16.70;;;6.13;;
16101;SDS011;56411;52.964;10.540;2022-12-07T05:08:40;14.63;;;6.07;;
16101;SDS011;56411;52.964;10.540;2022-12-07T05:11:08;18.07;;;6.50;;
16101;SDS011;56411;52.964;10.540;2022-12-07T05:13:56;16.67;;;5.93;;
16101;SDS011;56411;52.964;10.540;2022-12-07T05:16:23;15.27;;;5.97;;
16101;SDS011;56411;52.964;10.540;2022-12-07T05:18:52;14.17;;;6.13;;
16101;SDS011;56411;52.964;10.540;2022-12-07T05:21:19;15.73;;;5.87;;
16101;SDS011;56411;52.964;10.540;2022-12-07T05:23:46;14.37;;;5.63;;
16101;SDS011;56411;52.964;10.540;2022-12-07T05:26:13;13.33;;;5.43;;
16101;SDS011;56411;52.964;10.540;2022-12-07T05:28:41;13.70;;;5.27;;
16101;SDS011;56411;52.964;10.540;2022-12-07T05:31:08;15.53;;;5.73;;
16101;SDS011;56411;52.964;10.540;2022-12-07T05:33:36;15.10;;;5.40;;
16101;SDS011;56411;52.964;10.540;2022-12-07T05:36:04;11.97;;;4.90;;
16101;SDS011;56411;52.964;10.540;2022-12-07T05:38:32;14.33;;;5.70;;
16101;SDS011;56411;52.964;10.540;2022-12-07T05:41:00;12.40;;;4.77;;
16101;SDS011;56411;52.964;10.540;2022-12-07T05:43:28;12.93;;;4.63;;
16101;SDS011;56411;52.964;10.540;2022-12-07T05:45:55;13.67;;;5.07;;
16101;SDS011;56411;52.964;10.540;2022-12-07T05:48:23;14.17;;;5.20;;
16101;SDS011;56411;52.964;10.540;2022-12-07T05:50:52;12.90;;;4.97;;
16101;SDS011;56411;52.964;10.540;2022-12-07T05:53:21;15.87;;;5.27;;
16101;SDS011;56411;52.964;10.540;2022-12-07T05:55:48;11.67;;;4.83;;
16101;SDS011;56411;52.964;10.540;2022-12-07T05:58:15;13.40;;;4.93;;
16101;SDS011;56411;52.964;10.540;2022-12-07T06:01:00;14.63;;;4.83;;
16101;SDS011;56411;52.964;10.540;2022-12-07T06:03:27;12.83;;;5.10;;
16101;SDS011;56411;52.964;10.540;2022-12-07T06:05:54;12.63;;;4.97;;
16101;SDS011;56411;52.964;10.540;2022-12-07T06:08:23;13.57;;;4.73;;
16101;SDS011;56411;52.964;10.540;2022-12-07T06:10:50;13.83;;;5.00;;
16101;SDS011;56411;52.964;10.540;2022-12-07T06:13:37;15.80;;;4.93;;
16101;SDS011;56411;52.964;10.540;2022-12-07T06:16:03;14.30;;;5.43;;
16101;SDS011;56411;52.964;10.540;2022-12-07T06:18:31;15.17;;;5.40;;
16101;SDS011;56411;52.964;10.540;2022-12-07T06:20:58;13.97;;;4.73;;
16101;SDS011;56411;52.964;10.540;2022-12-07T06:23:27;14.97;;;5.70;;
16101;SDS011;56411;52.964;10.540;2022-12-07T06:25:55;14.30;;;5.30;;
16101;SDS011;56411;52.964;10.540;2022-12-07T06:28:22;12.73;;;5.07;;
16101;SDS011;56411;52.964;10.540;2022-12-07T06:30:56;15.40;;;6.30;;
16101;SDS011;56411;52.964;10.540;2022-12-07T06:33:24;14.83;;;5.37;;
16101;SDS011;56411;52.964;10.540;2022-12-07T06:35:51;15.97;;;5.63;;
16101;SDS011;56411;52.964;10.540;2022-12-07T06:38:19;14.97;;;5.33;;
16101;SDS011;56411;52.964;10.540;2022-12-07T06:40:47;17.63;;;6.03;;
16101;SDS011;56411;52.964;10.540;2022-12-07T06:43:15;16.57;;;6.03;;
16101;SDS011;56411;52.964;10.540;2022-12-07T06:45:42;16.73;;;6.40;;
16101;SDS011;56411;52.964;10.540;2022-12-07T06:48:09;16.03;;;7.00;;
16101;SDS011;56411;52.964;10.540;2022-12-07T06:50:36;17.27;;;6.87;;
16101;SDS011;56411;52.964;10.540;2022-12-07T06:53:04;18.47;;;7.53;;
16101;SDS011;56411;52.964;10.540;2022-12-07T06:55:31;17.67;;;8.00;;
16101;SDS011;56411;52.964;10.540;2022-12-07T06:58:00;17.97;;;7.20;;
16101;SDS011;56411;52.964;10.540;2022-12-07T07:00:28;21.80;;;8.43;;
16101;SDS011;56411;52.964;10.540;2022-12-07T07:02:55;20.73;;;8.33;;
16101;SDS011;56411;52.964;10.540;2022-12-07T07:05:23;19.83;;;8.80;;
16101;SDS011;56411;52.964;10.540;2022-12-07T07:07:50;17.57;;;7.50;;
16101;SDS011;56411;52.964;10.540;2022-12-07T07:10:17;18.47;;;8.23;;
16101;SDS011;56411;52.964;10.540;2022-12-07T07:12:44;20.53;;;8.37;;
16101;SDS011;56411;52.964;10.540;2022-12-07T07:15:13;18.47;;;7.73;;
16101;SDS011;56411;52.964;10.540;2022-12-07T07:17:41;19.57;;;8.30;;
16101;SDS011;56411;52.964;10.540;2022-12-07T07:20:08;18.10;;;8.10;;
16101;SDS011;56411;52.964;10.540;2022-12-07T07:22:36;20.23;;;7.83;;
16101;SDS011;56411;52.964;10.540;2022-12-07T07:25:04;17.83;;;7.90;;
16101;SDS011;56411;52.964;10.540;2022-12-07T07:27:31;19.43;;;7.57;;
16101;SDS011;56411;52.964;10.540;2022-12-07T07:29:58;17.67;;;7.53;;
16101;SDS011;56411;52.964;10.540;2022-12-07T07:32:26;18.33;;;8.40;;
16101;SDS011;56411;52.964;10.540;2022-12-07T07:34:54;21.23;;;7.27;;
16101;SDS011;56411;52.964;10.540;2022-12-07T07:37:21;17.70;;;7.30;;
16101;SDS011;56411;52.964;10.540;2022-12-07T07:39:49;17.03;;;7.17;;
16101;SDS011;56411;52.964;10.540;2022-12-07T07:42:17;19.63;;;7.70;;
16101;SDS011;56411;52.964;10.540;2022-12-07T07:44:44;16.73;;;7.07;;
16101;SDS011;56411;52.964;10.540;2022-12-07T07:47:11;19.13;;;7.30;;
16101;SDS011;56411;52.964;10.540;2022-12-07T07:49:39;15.50;;;6.37;;
16101;SDS011;56411;52.964;10.540;2022-12-07T07:52:07;17.80;;;7.30;;
16101;SDS011;56411;52.964;10.540;2022-12-07T07:54:34;17.03;;;7.70;;
16101;SDS011;56411;52.964;10.540;2022-12-07T07:57:02;14.77;;;6.63;;
16101;SDS011;56411;52.964;10.540;2022-12-07T07:59:29;18.17;;;7.53;;
16101;SDS011;56411;52.964;10.540;2022-12-07T08:01:56;18.13;;;6.93;;
16101;SDS011;56411;52.964;10.540;2022-12-07T08:04:23;16.50;;;7.43;;
16101;SDS011;56411;52.964;10.540;2022-12-07T08:06:52;22.97;;;8.10;;
16101;SDS011;56411;52.964;10.540;2022-12-07T08:09:20;18.57;;;7.87;;
16101;SDS011;56411;52.964;10.540;2022-12-07T08:11:47;19.63;;;7.70;;
16101;SDS011;56411;52.964;10.540;2022-12-07T08:14:14;17.83;;;7.13;;
16101;SDS011;56411;52.964;10.540;2022-12-07T08:16:42;19.83;;;7.63;;
16101;SDS011;56411;52.964;10.540;2022-12-07T08:19:09;18.20;;;8.20;;
16101;SDS011;56411;52.964;10.540;2022-12-07T08:21:37;16.43;;;7.13;;
16101;SDS011;56411;52.964;10.540;2022-12-07T08:24:06;16.23;;;7.43;;
16101;SDS011;56411;52.964;10.540;2022-12-07T08:26:33;17.47;;;7.63;;
16101;SDS011;56411;52.964;10.540;2022-12-07T08:29:00;18.80;;;7.30;;
16101;SDS011;56411;52.964;10.540;2022-12-07T08:31:28;17.17;;;7.93;;
16101;SDS011;56411;52.964;10.540;2022-12-07T08:33:56;17.67;;;7.27;;
16101;SDS011;56411;52.964;10.540;2022-12-07T08:36:24;16.03;;;7.70;;
16101;SDS011;56411;52.964;10.540;2022-12-07T08:38:51;19.37;;;7.37;;
16101;SDS011;56411;52.964;10.540;2022-12-07T08:41:20;16.90;;;6.87;;
16101;SDS011;56411;52.964;10.540;2022-12-07T08:43:47;16.60;;;6.97;;
16101;SDS011;56411;52.964;10.540;2022-12-07T08:46:16;14.97;;;7.03;;
16101;SDS011;56411;52.964;10.540;2022-12-07T08:48:48;13.97;;;6.43;;
16101;SDS011;56411;52.964;10.540;2022-12-07T08:51:19;18.37;;;6.97;;
16101;SDS011;56411;52.964;10.540;2022-12-07T08:53:48;15.53;;;6.40;;
16101;SDS011;56411;52.964;10.540;2022-12-07T08:56:16;14.63;;;6.37;;
16101;SDS011;56411;52.964;10.540;2022-12-07T08:58:45;14.57;;;5.87;;
16101;SDS011;56411;52.964;10.540;2022-12-07T09:01:13;14.73;;;6.17;;
16101;SDS011;56411;52.964;10.540;2022-12-07T09:03:41;14.03;;;5.87;;
16101;SDS011;56411;52.964;10.540;2022-12-07T09:06:08;11.60;;;5.67;;
16101;SDS011;56411;52.964;10.540;2022-12-07T09:08:36;14.53;;;6.00;;
16101;SDS011;56411;52.964;10.540;2022-12-07T09:11:07;15.53;;;6.13;;
16101;SDS011;56411;52.964;10.540;2022-12-07T09:13:34;12.37;;;5.70;;
16101;SDS011;56411;52.964;10.540;2022-12-07T09:16:03;15.90;;;5.93;;
16101;SDS011;56411;52.964;10.540;2022-12-07T09:18:31;14.50;;;5.67;;
16101;SDS011;56411;52.964;10.540;2022-12-07T09:20:58;13.53;;;5.97;;
16101;SDS011;56411;52.964;10.540;2022-12-07T09:23:26;11.40;;;5.20;;
16101;SDS011;56411;52.964;10.540;2022-12-07T09:25:53;11.20;;;5.20;;
16101;SDS011;56411;52.964;10.540;2022-12-07T09:28:20;13.53;;;6.10;;
16101;SDS011;56411;52.964;10.540;2022-12-07T09:30:48;14.03;;;5.77;;
16101;SDS011;56411;52.964;10.540;2022-12-07T09:33:17;14.53;;;5.80;;
16101;SDS011;56411;52.964;10.540;2022-12-07T09:35:45;14.83;;;5.57;;
16101;SDS011;56411;52.964;10.540;2022-12-07T09:38:12;13.73;;;5.40;;
16101;SDS011;56411;52.964;10.540;2022-12-07T09:40:40;13.03;;;6.10;;
16101;SDS011;56411;52.964;10.540;2022-12-07T09:43:11;12.07;;;5.07;;
16101;SDS011;56411;52.964;10.540;2022-12-07T09:45:41;12.93;;;5.70;;
16101;SDS011;56411;52.964;10.540;2022-12-07T09:48:13;13.87;;;5.70;;
16101;SDS011;56411;52.964;10.540;2022-12-07T09:50:46;12.07;;;5.47;;
16101;SDS011;56411;52.964;10.540;2022-12-07T09:53:15;12.27;;;5.17;;
16101;SDS011;56411;52.964;10.540;2022-12-07T09:55:53;14.77;;;5.60;;
16101;SDS011;56411;52.964;10.540;2022-12-07T09:58:21;13.03;;;5.67;;
16101;SDS011;56411;52.964;10.540;2022-12-07T10:00:52;13.87;;;5.63;;
16101;SDS011;56411;52.964;10.540;2022-12-07T10:03:25;14.23;;;5.23;;
16101;SDS011;56411;52.964;10.540;2022-12-07T10:05:53;13.37;;;5.27;;
16101;SDS011;56411;52.964;10.540;2022-12-07T10:08:22;12.67;;;5.10;;
16101;SDS011;56411;52.964;10.540;2022-12-07T10:10:51;12.97;;;5.60;;
16101;SDS011;56411;52.964;10.540;2022-12-07T10:13:21;10.63;;;4.73;;
16101;SDS011;56411;52.964;10.540;2022-12-07T10:16:01;11.50;;;5.20;;
16101;SDS011;56411;52.964;10.540;2022-12-07T10:18:31;12.07;;;5.50;;
16101;SDS011;56411;52.964;10.540;2022-12-07T10:21:09;11.73;;;5.60;;
16101;SDS011;56411;52.964;10.540;2022-12-07T10:23:39;12.00;;;5.00;;
16101;SDS011;56411;52.964;10.540;2022-12-07T10:28:55;10.87;;;4.90;;
16101;SDS011;56411;52.964;10.540;2022-12-07T10:31:25;13.83;;;5.27;;
16101;SDS011;56411;52.964;10.540;2022-12-07T10:33:54;12.03;;;5.70;;
16101;SDS011;56411;52.964;10.540;2022-12-07T10:36:24;13.90;;;6.17;;
16101;SDS011;56411;52.964;10.540;2022-12-07T10:38:58;13.53;;;5.47;;
16101;SDS011;56411;52.964;10.540;2022-12-07T10:41:27;13.63;;;5.37;;
16101;SDS011;56411;52.964;10.540;2022-12-07T10:43:54;13.63;;;5.40;;
16101;SDS011;56411;52.964;10.540;2022-12-07T10:46:33;11.67;;;5.20;;
16101;SDS011;56411;52.964;10.540;2022-12-07T10:49:25;11.10;;;5.37;;
16101;SDS011;56411;52.964;10.540;2022-12-07T10:52:36;13.80;;;5.47;;
16101;SDS011;56411;52.964;10.540;2022-12-07T10:55:16;14.50;;;5.23;;
16101;SDS011;56411;52.964;10.540;2022-12-07T10:57:55;11.90;;;4.03;;
16101;SDS011;56411;52.964;10.540;2022-12-07T11:00:51;10.37;;;3.73;;
16101;SDS011;56411;52.964;10.540;2022-12-07T11:03:32;13.03;;;4.13;;
16101;SDS011;56411;52.964;10.540;2022-12-07T11:11:55;6.87;;;2.80;;
16101;SDS011;56411;52.964;10.540;2022-12-07T11:14:34;8.67;;;3.30;;
16101;SDS011;56411;52.964;10.540;2022-12-07T11:17:07;9.67;;;3.10;;
16101;SDS011;56411;52.964;10.540;2022-12-07T11:19:47;10.30;;;3.87;;
16101;SDS011;56411;52.964;10.540;2022-12-07T11:22:29;9.10;;;3.80;;
16101;SDS011;56411;52.964;10.540;2022-12-07T11:25:13;10.07;;;4.10;;
16101;SDS011;56411;52.964;10.540;2022-12-07T11:27:47;12.13;;;4.13;;
16101;SDS011;56411;52.964;10.540;2022-12-07T11:30:22;11.37;;;3.93;;
16101;SDS011;56411;52.964;10.540;2022-12-07T11:33:00;10.03;;;3.67;;
16101;SDS011;56411;52.964;10.540;2022-12-07T11:35:36;8.10;;;3.60;;
16101;SDS011;56411;52.964;10.540;2022-12-07T11:38:15;9.73;;;3.90;;
16101;SDS011;56411;52.964;10.540;2022-12-07T11:40:46;9.03;;;3.90;;
16101;SDS011;56411;52.964;10.540;2022-12-07T11:43:19;10.77;;;3.53;;
16101;SDS011;56411;52.964;10.540;2022-12-07T11:45:53;10.33;;;4.03;;
16101;SDS011;56411;52.964;10.540;2022-12-07T11:48:25;8.30;;;3.63;;
16101;SDS011;56411;52.964;10.540;2022-12-07T11:50:59;9.00;;;3.50;;
16101;SDS011;56411;52.964;10.540;2022-12-07T11:53:32;9.47;;;3.80;;
16101;SDS011;56411;52.964;10.540;2022-12-07T11:56:06;9.93;;;3.50;;
16101;SDS011;56411;52.964;10.540;2022-12-07T11:58:48;9.40;;;3.67;;
16101;SDS011;56411;52.964;10.540;2022-12-07T12:01:25;10.70;;;3.43;;
16101;SDS011;56411;52.964;10.540;2022-12-07T12:04:02;10.03;;;3.57;;
16101;SDS011;56411;52.964;10.540;2022-12-07T12:06:41;13.73;;;3.50;;
16101;SDS011;56411;52.964;10.540;2022-12-07T12:09:12;9.93;;;3.60;;
16101;SDS011;56411;52.964;10.540;2022-12-07T12:11:47;10.03;;;3.10;;
16101;SDS011;56411;52.964;10.540;2022-12-07T12:14:33;9.43;;;3.70;;
16101;SDS011;56411;52.964;10.540;2022-12-07T12:20:19;6.50;;;3.20;;
16101;SDS011;56411;52.964;10.540;2022-12-07T12:22:51;7.97;;;3.10;;
16101;SDS011;56411;52.964;10.540;2022-12-07T12:25:24;8.80;;;3.07;;
16101;SDS011;56411;52.964;10.540;2022-12-07T12:27:55;6.97;;;2.80;;
16101;SDS011;56411;52.964;10.540;2022-12-07T12:30:25;8.27;;;3.27;;
16101;SDS011;56411;52.964;10.540;2022-12-07T12:33:03;8.17;;;3.03;;
16101;SDS011;56411;52.964;10.540;2022-12-07T12:35:38;9.67;;;2.90;;
16101;SDS011;56411;52.964;10.540;2022-12-07T12:38:25;8.93;;;3.33;;
16101;SDS011;56411;52.964;10.540;2022-12-07T12:40:57;10.63;;;2.80;;
16101;SDS011;56411;52.964;10.540;2022-12-07T13:04:14;8.80;;;2.90;;
16101;SDS011;56411;52.964;10.540;2022-12-07T13:06:59;7.83;;;2.80;;
16101;SDS011;56411;52.964;10.540;2022-12-07T13:09:27;8.27;;;3.17;;
16101;SDS011;56411;52.964;10.540;2022-12-07T13:11:58;8.37;;;3.03;;
16101;SDS011;56411;52.964;10.540;2022-12-07T13:14:44;12.10;;;3.30;;
16101;SDS011;56411;52.964;10.540;2022-12-07T13:20:46;6.40;;;3.10;;
16101;SDS011;56411;52.964;10.540;2022-12-07T13:26:06;6.40;;;3.07;;
16101;SDS011;56411;52.964;10.540;2022-12-07T13:28:41;6.13;;;2.70;;
16101;SDS011;56411;52.964;10.540;2022-12-07T13:34:02;8.20;;;3.03;;
16101;SDS011;56411;52.964;10.540;2022-12-07T13:36:31;8.03;;;3.30;;
16101;SDS011;56411;52.964;10.540;2022-12-07T13:39:10;8.63;;;3.50;;
16101;SDS011;56411;52.964;10.540;2022-12-07T13:41:44;10.33;;;3.30;;
16101;SDS011;56411;52.964;10.540;2022-12-07T13:44:15;8.40;;;3.60;;
16101;SDS011;56411;52.964;10.540;2022-12-07T13:46:47;11.37;;;4.63;;
16101;SDS011;56411;52.964;10.540;2022-12-07T13:49:21;8.67;;;3.80;;
16101;SDS011;56411;52.964;10.540;2022-12-07T13:51:50;8.60;;;4.17;;
16101;SDS011;56411;52.964;10.540;2022-12-07T13:54:19;11.00;;;4.53;;
16101;SDS011;56411;52.964;10.540;2022-12-07T13:56:48;10.10;;;4.47;;
16101;SDS011;56411;52.964;10.540;2022-12-07T13:59:17;11.57;;;4.40;;
16101;SDS011;56411;52.964;10.540;2022-12-07T14:01:48;11.50;;;4.77;;
16101;SDS011;56411;52.964;10.540;2022-12-07T14:07:01;12.03;;;5.27;;
16101;SDS011;56411;52.964;10.540;2022-12-07T14:09:53;12.57;;;5.17;;
16101;SDS011;56411;52.964;10.540;2022-12-07T14:12:26;9.97;;;4.97;;
16101;SDS011;56411;52.964;10.540;2022-12-07T14:14:55;15.90;;;5.90;;
16101;SDS011;56411;52.964;10.540;2022-12-07T14:17:25;12.03;;;5.30;;
16101;SDS011;56411;52.964;10.540;2022-12-07T14:19:53;11.30;;;5.60;;
16101;SDS011;56411;52.964;10.540;2022-12-07T14:22:26;13.30;;;5.50;;
16101;SDS011;56411;52.964;10.540;2022-12-07T14:24:59;14.10;;;5.93;;
16101;SDS011;56411;52.964;10.540;2022-12-07T14:27:55;13.47;;;5.63;;
16101;SDS011;56411;52.964;10.540;2022-12-07T14:30:24;12.33;;;5.13;;
16101;SDS011;56411;52.964;10.540;2022-12-07T14:32:56;12.10;;;5.87;;
16101;SDS011;56411;52.964;10.540;2022-12-07T14:35:29;15.17;;;6.23;;
16101;SDS011;56411;52.964;10.540;2022-12-07T14:37:57;14.57;;;5.80;;
16101;SDS011;56411;52.964;10.540;2022-12-07T14:40:25;14.23;;;6.00;;
16101;SDS011;56411;52.964;10.540;2022-12-07T14:42:57;15.70;;;6.07;;
16101;SDS011;56411;52.964;10.540;2022-12-07T14:45:28;13.43;;;6.20;;
16101;SDS011;56411;52.964;10.540;2022-12-07T14:47:57;15.90;;;6.73;;
16101;SDS011;56411;52.964;10.540;2022-12-07T14:50:24;13.43;;;6.20;;
16101;SDS011;56411;52.964;10.540;2022-12-07T14:52:54;12.73;;;6.00;;
16101;SDS011;56411;52.964;10.540;2022-12-07T14:55:24;19.93;;;6.90;;
16101;SDS011;56411;52.964;10.540;2022-12-07T14:58:05;13.23;;;6.40;;
16101;SDS011;56411;52.964;10.540;2022-12-07T15:00:38;13.90;;;6.80;;
16101;SDS011;56411;52.964;10.540;2022-12-07T15:03:07;13.33;;;6.97;;
16101;SDS011;56411;52.964;10.540;2022-12-07T15:05:34;14.23;;;6.77;;
16101;SDS011;56411;52.964;10.540;2022-12-07T15:08:02;15.47;;;7.30;;
16101;SDS011;56411;52.964;10.540;2022-12-07T15:10:32;13.20;;;7.07;;
16101;SDS011;56411;52.964;10.540;2022-12-07T15:13:04;14.80;;;7.17;;
16101;SDS011;56411;52.964;10.540;2022-12-07T15:15:45;15.87;;;7.17;;
16101;SDS011;56411;52.964;10.540;2022-12-07T15:18:14;15.50;;;6.80;;
16101;SDS011;56411;52.964;10.540;2022-12-07T15:20:42;13.77;;;6.80;;
16101;SDS011;56411;52.964;10.540;2022-12-07T15:23:09;14.83;;;7.03;;
16101;SDS011;56411;52.964;10.540;2022-12-07T15:25:40;15.80;;;7.27;;
16101;SDS011;56411;52.964;10.540;2022-12-07T15:28:07;15.70;;;6.97;;
16101;SDS011;56411;52.964;10.540;2022-12-07T15:30:36;15.60;;;7.03;;
16101;SDS011;56411;52.964;10.540;2022-12-07T15:33:03;16.13;;;6.90;;